createdAt,value
2018-11-07T00:00:57.488Z,93.16
2018-11-07T00:02:04.640Z,92.96
2018-11-07T00:03:09.786Z,92.97
2018-11-07T00:04:14.780Z,93.04
2018-11-07T00:05:20.978Z,92.82
2018-11-07T00:06:27.027Z,93.01
2018-11-07T00:07:32.881Z,93.18
2018-11-07T00:08:39.868Z,93.29
2018-11-07T00:09:45.281Z,93.29
2018-11-07T00:10:54.189Z,93.00
2018-11-07T00:13:15.508Z,93.45
2018-11-07T00:14:23.710Z,93.27
2018-11-07T00:15:31.427Z,93.35
2018-11-07T00:16:37.806Z,93.33
2018-11-07T00:17:46.011Z,93.48
2018-11-07T00:18:51.365Z,93.46
2018-11-07T00:19:57.447Z,93.25
2018-11-07T00:21:02.627Z,93.67
2018-11-07T00:22:09.279Z,93.38
2018-11-07T00:23:17.166Z,93.63
2018-11-07T00:24:23.816Z,93.33
2018-11-07T00:25:32.168Z,93.20
2018-11-07T00:26:37.184Z,92.96
2018-11-07T00:27:43.437Z,93.20
2018-11-07T00:28:51.007Z,92.84
2018-11-07T00:29:56.428Z,92.81
2018-11-07T00:31:03.528Z,92.87
2018-11-07T00:32:10.314Z,93.21
2018-11-07T00:33:15.081Z,93.23
2018-11-07T00:34:21.075Z,93.04
2018-11-07T00:35:27.380Z,92.95
2018-11-07T00:36:32.053Z,92.92
2018-11-07T00:37:36.502Z,93.01
2018-11-07T00:38:42.806Z,93.27
2018-11-07T00:39:49.505Z,93.18
2018-11-07T00:40:54.252Z,93.13
2018-11-07T00:42:00.268Z,93.24
2018-11-07T00:43:06.369Z,93.28
2018-11-07T00:44:12.474Z,93.31
2018-11-07T00:45:19.584Z,93.52
2018-11-07T00:46:24.758Z,93.43
2018-11-07T00:47:36.198Z,93.51
2018-11-07T00:48:47.282Z,93.52
2018-11-07T00:51:02.797Z,93.60
2018-11-07T00:52:13.572Z,93.68
2018-11-07T00:53:24.746Z,93.51
2018-11-07T00:54:33.111Z,93.59
2018-11-07T00:55:41.315Z,93.37
2018-11-07T00:56:46.947Z,93.43
2018-11-07T00:57:54.646Z,93.50
2018-11-07T00:59:00.365Z,93.83
2018-11-07T01:00:06.547Z,93.46
2018-11-07T01:01:16.886Z,93.61
2018-11-07T01:02:21.616Z,93.67
2018-11-07T01:03:26.774Z,93.68
2018-11-07T01:04:31.677Z,93.74
2018-11-07T01:05:37.127Z,93.95
2018-11-07T01:06:41.569Z,93.71
2018-11-07T01:07:48.044Z,93.89
2018-11-07T01:08:52.519Z,93.87
2018-11-07T01:09:57.033Z,93.78
2018-11-07T01:11:05.199Z,93.63
2018-11-07T01:12:10.363Z,93.71
2018-11-07T01:13:27.562Z,93.53
2018-11-07T01:14:32.056Z,93.84
2018-11-07T01:15:37.573Z,93.73
2018-11-07T01:16:43.757Z,93.53
2018-11-07T01:17:49.405Z,94.09
2018-11-07T01:18:54.490Z,94.08
2018-11-07T01:19:59.050Z,93.73
2018-11-07T01:21:03.602Z,93.82
2018-11-07T01:22:09.053Z,93.80
2018-11-07T01:23:22.842Z,94.02
2018-11-07T01:24:28.850Z,94.11
2018-11-07T01:25:36.382Z,94.17
2018-11-07T01:26:41.579Z,94.27
2018-11-07T01:27:46.788Z,94.23
2018-11-07T01:28:51.568Z,94.04
2018-11-07T01:29:58.206Z,93.72
2018-11-07T01:31:04.177Z,93.92
2018-11-07T01:32:09.053Z,93.94
2018-11-07T01:33:13.641Z,94.04
2018-11-07T01:34:18.704Z,94.22
2018-11-07T01:35:23.148Z,94.16
2018-11-07T01:36:27.637Z,94.10
2018-11-07T01:37:33.286Z,94.20
2018-11-07T01:38:38.335Z,94.21
2018-11-07T01:39:44.695Z,94.09
2018-11-07T01:40:51.229Z,94.39
2018-11-07T01:41:55.774Z,94.20
2018-11-07T01:43:00.262Z,94.38
2018-11-07T01:44:06.065Z,94.17
2018-11-07T01:45:11.821Z,94.26
2018-11-07T01:46:16.814Z,94.08
2018-11-07T01:47:31.689Z,94.11
2018-11-07T01:48:37.643Z,94.06
2018-11-07T01:49:42.128Z,93.90
2018-11-07T01:50:49.334Z,94.21
2018-11-07T01:51:54.838Z,93.92
2018-11-07T01:52:59.322Z,94.01
2018-11-07T01:54:04.233Z,94.41
2018-11-07T01:55:09.925Z,94.24
2018-11-07T01:56:15.792Z,94.58
2018-11-07T01:57:21.577Z,94.86
2018-11-07T01:58:27.813Z,94.90
2018-11-07T01:59:32.678Z,95.22
2018-11-07T02:00:38.321Z,95.26
2018-11-07T02:01:43.174Z,95.24
2018-11-07T02:02:47.644Z,95.13
2018-11-07T02:03:53.517Z,95.15
2018-11-07T02:04:57.977Z,95.16
2018-11-07T02:06:02.524Z,95.25
2018-11-07T02:07:07.248Z,95.15
2018-11-07T02:08:11.734Z,95.28
2018-11-07T02:09:17.905Z,95.39
2018-11-07T02:10:22.753Z,95.38
2018-11-07T02:11:27.827Z,94.94
2018-11-07T02:12:32.372Z,95.10
2018-11-07T02:13:37.162Z,95.19
2018-11-07T02:14:43.837Z,95.24
2018-11-07T02:15:48.295Z,95.18
2018-11-07T02:16:53.316Z,95.30
2018-11-07T02:17:58.529Z,95.50
2018-11-07T02:19:03.096Z,95.33
2018-11-07T02:20:09.310Z,95.29
2018-11-07T02:21:19.482Z,95.36
2018-11-07T02:22:25.834Z,95.51
2018-11-07T02:23:31.347Z,95.55
2018-11-07T02:24:35.804Z,95.64
2018-11-07T02:25:40.405Z,95.51
2018-11-07T02:26:44.868Z,95.40
2018-11-07T02:27:53.287Z,95.79
2018-11-07T02:28:58.189Z,95.50
2018-11-07T02:30:02.679Z,95.49
2018-11-07T02:31:09.710Z,95.67
2018-11-07T02:32:14.697Z,96.00
2018-11-07T02:33:20.790Z,95.96
2018-11-07T02:34:25.265Z,95.76
2018-11-07T02:35:30.258Z,95.50
2018-11-07T02:36:34.762Z,95.79
2018-11-07T02:37:39.821Z,95.69
2018-11-07T02:38:44.605Z,95.49
2018-11-07T02:39:49.359Z,95.70
2018-11-07T02:40:56.222Z,95.72
2018-11-07T02:42:02.878Z,95.80
2018-11-07T02:43:08.318Z,96.02
2018-11-07T02:44:14.574Z,95.93
2018-11-07T02:45:20.241Z,96.11
2018-11-07T02:46:25.303Z,96.39
2018-11-07T02:47:33.476Z,96.26
2018-11-07T02:48:39.411Z,96.49
2018-11-07T02:49:43.873Z,96.05
2018-11-07T02:50:48.583Z,96.41
2018-11-07T02:51:53.676Z,96.40
2018-11-07T02:52:58.742Z,96.41
2018-11-07T02:54:03.799Z,96.60
2018-11-07T02:55:09.173Z,96.46
2018-11-07T02:56:13.736Z,96.54
2018-11-07T02:57:18.561Z,96.59
2018-11-07T02:58:26.025Z,96.69
2018-11-07T02:59:31.371Z,96.88
2018-11-07T03:00:36.518Z,96.61
2018-11-07T03:01:41.439Z,96.77
2018-11-07T03:02:46.983Z,96.78
2018-11-07T03:03:52.377Z,96.56
2018-11-07T03:04:58.166Z,96.89
2018-11-07T03:06:03.656Z,96.80
2018-11-07T03:07:08.492Z,96.83
2018-11-07T03:08:13.605Z,96.93
2018-11-07T03:09:18.093Z,97.02
2018-11-07T03:10:24.375Z,97.15
2018-11-07T03:11:28.868Z,96.69
2018-11-07T03:12:34.477Z,96.85
2018-11-07T03:13:39.251Z,96.85
2018-11-07T03:14:44.660Z,96.52
2018-11-07T03:15:49.951Z,96.41
2018-11-07T03:16:54.493Z,96.75
2018-11-07T03:17:59.217Z,96.62
2018-11-07T03:19:03.714Z,96.39
2018-11-07T03:20:09.227Z,96.50
2018-11-07T03:21:14.128Z,96.46
2018-11-07T03:22:19.667Z,96.66
2018-11-07T03:23:24.723Z,96.52
2018-11-07T03:24:36.142Z,96.49
2018-11-07T03:25:41.460Z,96.75
2018-11-07T03:26:46.700Z,96.50
2018-11-07T03:27:51.508Z,96.46
2018-11-07T03:29:00.718Z,96.89
2018-11-07T03:30:07.569Z,96.87
2018-11-07T03:31:15.623Z,96.71
2018-11-07T03:32:21.050Z,96.60
2018-11-07T03:33:25.473Z,96.98
2018-11-07T03:34:30.296Z,96.92
2018-11-07T03:35:35.725Z,96.57
2018-11-07T03:36:41.395Z,96.63
2018-11-07T03:37:45.837Z,96.88
2018-11-07T03:38:50.553Z,96.83
2018-11-07T03:39:55.214Z,96.89
2018-11-07T03:41:03.992Z,96.67
2018-11-07T03:42:09.737Z,96.42
2018-11-07T03:43:15.112Z,96.65
2018-11-07T03:44:19.652Z,96.60
2018-11-07T03:45:29.262Z,96.66
2018-11-07T03:46:36.515Z,96.44
2018-11-07T03:47:41.460Z,96.64
2018-11-07T03:48:45.908Z,96.70
2018-11-07T03:49:52.537Z,96.63
2018-11-07T03:50:57.047Z,96.49
2018-11-07T03:52:01.843Z,96.50
2018-11-07T03:53:06.509Z,96.13
2018-11-07T03:54:11.289Z,96.34
2018-11-07T03:55:16.846Z,96.29
2018-11-07T03:56:21.364Z,96.68
2018-11-07T03:57:33.589Z,96.71
2018-11-07T03:58:40.520Z,96.87
2018-11-07T03:59:45.245Z,96.52
2018-11-07T04:00:51.394Z,96.59
2018-11-07T04:01:56.368Z,96.67
2018-11-07T04:03:01.460Z,96.52
2018-11-07T04:04:06.595Z,96.44
2018-11-07T04:05:12.832Z,96.45
2018-11-07T04:06:17.362Z,96.43
2018-11-07T04:07:25.404Z,96.51
2018-11-07T04:08:32.393Z,96.48
2018-11-07T04:09:37.457Z,96.43
2018-11-07T04:10:41.934Z,96.76
2018-11-07T04:11:46.417Z,96.68
2018-11-07T04:12:50.965Z,96.51
2018-11-07T04:13:56.605Z,96.54
2018-11-07T04:15:01.055Z,96.88
2018-11-07T04:16:05.614Z,96.99
2018-11-07T04:17:10.093Z,96.88
2018-11-07T04:18:14.585Z,96.99
2018-11-07T04:19:20.942Z,97.15
2018-11-07T04:20:27.909Z,96.95
2018-11-07T04:21:32.382Z,97.03
2018-11-07T04:22:37.713Z,96.86
2018-11-07T04:23:47.163Z,96.77
2018-11-07T04:24:52.163Z,96.96
2018-11-07T04:25:57.382Z,97.03
2018-11-07T04:27:01.976Z,97.12
2018-11-07T04:28:06.703Z,96.84
2018-11-07T04:29:11.698Z,96.87
2018-11-07T04:30:16.434Z,97.12
2018-11-07T04:31:21.477Z,96.68
2018-11-07T04:32:27.211Z,96.81
2018-11-07T04:33:32.020Z,96.77
2018-11-07T04:34:37.906Z,96.94
2018-11-07T04:35:42.363Z,96.96
2018-11-07T04:36:47.229Z,96.87
2018-11-07T04:37:51.692Z,96.94
2018-11-07T04:38:57.318Z,96.74
2018-11-07T04:40:02.153Z,96.89
2018-11-07T04:41:06.664Z,96.59
2018-11-07T04:42:11.326Z,96.84
2018-11-07T04:43:17.320Z,96.91
2018-11-07T04:44:21.802Z,96.58
2018-11-07T04:45:28.292Z,96.76
2018-11-07T04:46:33.009Z,96.71
2018-11-07T04:47:37.487Z,96.68
2018-11-07T04:48:42.081Z,96.65
2018-11-07T04:49:46.522Z,96.92
2018-11-07T04:50:51.832Z,97.00
2018-11-07T04:51:56.381Z,96.94
2018-11-07T04:53:01.150Z,97.00
2018-11-07T04:54:06.388Z,96.85
2018-11-07T04:55:10.860Z,96.83
2018-11-07T04:57:26.549Z,96.62
2018-11-07T04:58:31.858Z,97.18
2018-11-07T04:59:36.651Z,97.01
2018-11-07T05:00:41.161Z,96.99
2018-11-07T05:01:45.633Z,97.27
2018-11-07T05:02:50.897Z,97.13
2018-11-07T05:03:55.413Z,97.56
2018-11-07T05:04:59.893Z,97.50
2018-11-07T05:06:04.760Z,97.15
2018-11-07T05:07:09.407Z,97.23
2018-11-07T05:08:13.920Z,97.54
2018-11-07T05:09:18.703Z,97.56
2018-11-07T05:10:23.254Z,97.55
2018-11-07T05:11:31.786Z,97.37
2018-11-07T05:12:46.580Z,97.23
2018-11-07T05:13:52.889Z,97.47
2018-11-07T05:14:57.373Z,97.45
2018-11-07T05:16:02.034Z,97.45
2018-11-07T05:17:09.392Z,97.60
2018-11-07T05:18:14.156Z,97.58
2018-11-07T05:19:18.662Z,97.52
2018-11-07T05:20:23.268Z,97.42
2018-11-07T05:21:28.150Z,97.54
2018-11-07T05:22:32.898Z,97.22
2018-11-07T05:23:37.382Z,97.28
2018-11-07T05:24:42.591Z,97.40
2018-11-07T05:25:50.559Z,97.31
2018-11-07T05:26:56.541Z,97.26
2018-11-07T05:28:04.508Z,97.31
2018-11-07T05:29:10.418Z,97.38
2018-11-07T05:30:17.687Z,96.99
2018-11-07T05:31:22.827Z,97.25
2018-11-07T05:32:27.328Z,97.21
2018-11-07T05:33:31.818Z,97.14
2018-11-07T05:34:36.683Z,97.27
2018-11-07T05:35:41.393Z,97.31
2018-11-07T05:36:46.354Z,97.48
2018-11-07T05:37:52.046Z,97.52
2018-11-07T05:38:56.780Z,97.58
2018-11-07T05:40:09.347Z,97.81
2018-11-07T05:41:15.169Z,97.55
2018-11-07T05:42:19.618Z,97.64
2018-11-07T05:43:25.206Z,97.73
2018-11-07T05:44:29.670Z,97.84
2018-11-07T05:45:34.159Z,97.77
2018-11-07T05:46:39.617Z,98.11
2018-11-07T05:47:45.046Z,97.69
2018-11-07T05:48:50.392Z,97.64
2018-11-07T05:49:56.285Z,97.71
2018-11-07T05:51:00.776Z,97.78
2018-11-07T05:52:07.300Z,97.63
2018-11-07T05:53:11.893Z,97.65
2018-11-07T05:54:16.414Z,97.71
2018-11-07T05:55:22.220Z,97.96
2018-11-07T05:56:28.214Z,98.06
2018-11-07T05:57:33.351Z,98.08
2018-11-07T05:58:38.030Z,98.09
2018-11-07T05:59:42.855Z,98.20
2018-11-07T06:00:47.368Z,98.00
2018-11-07T06:01:58.497Z,98.16
2018-11-07T06:03:04.474Z,98.14
2018-11-07T06:04:10.503Z,98.13
2018-11-07T06:05:16.564Z,98.37
2018-11-07T06:06:23.452Z,98.28
2018-11-07T06:07:28.276Z,98.01
2018-11-07T06:08:34.039Z,98.16
2018-11-07T06:09:40.445Z,97.76
2018-11-07T06:10:44.927Z,98.18
2018-11-07T06:11:55.032Z,97.87
2018-11-07T06:13:01.609Z,97.88
2018-11-07T06:14:08.143Z,98.10
2018-11-07T06:15:12.888Z,98.00
2018-11-07T06:16:17.604Z,98.11
2018-11-07T06:17:22.122Z,97.92
2018-11-07T06:18:26.626Z,97.85
2018-11-07T06:19:31.445Z,97.52
2018-11-07T06:20:37.023Z,97.94
2018-11-07T06:21:42.334Z,97.71
2018-11-07T06:22:47.084Z,97.88
2018-11-07T06:23:53.145Z,97.85
2018-11-07T06:24:57.998Z,97.97
2018-11-07T06:26:02.869Z,97.88
2018-11-07T06:27:10.485Z,98.13
2018-11-07T06:28:15.474Z,97.85
2018-11-07T06:29:20.837Z,98.14
2018-11-07T06:30:26.511Z,98.35
2018-11-07T06:44:40.757Z,98.46
2018-11-07T06:45:45.347Z,98.86
2018-11-07T06:46:51.401Z,98.60
2018-11-07T06:47:57.460Z,98.82
2018-11-07T06:49:03.113Z,98.35
2018-11-07T06:50:10.643Z,98.72
2018-11-07T06:51:17.189Z,98.89
2018-11-07T06:52:26.563Z,99.03
2018-11-07T06:53:31.114Z,98.81
2018-11-07T06:54:35.617Z,99.16
2018-11-07T06:56:58.283Z,98.66
2018-11-07T06:58:02.774Z,98.15
2018-11-07T06:59:07.871Z,97.92
2018-11-07T07:00:15.305Z,97.78
2018-11-07T07:01:19.812Z,97.30
2018-11-07T07:02:27.458Z,96.85
2018-11-07T07:03:33.975Z,96.36
2018-11-07T07:04:39.180Z,96.15
2018-11-07T07:05:45.793Z,95.84
2018-11-07T07:06:52.465Z,94.78
2018-11-07T07:07:57.348Z,94.17
2018-11-07T07:09:02.672Z,93.96
2018-11-07T07:10:09.705Z,93.67
2018-11-07T07:11:14.765Z,93.16
2018-11-07T07:12:19.787Z,92.69
2018-11-07T07:13:24.913Z,92.10
2018-11-07T07:14:29.445Z,91.13
2018-11-07T07:15:37.463Z,90.50
2018-11-07T07:16:42.121Z,89.39
2018-11-07T07:17:47.324Z,89.27
2018-11-07T07:18:52.033Z,88.60
2018-11-07T07:19:57.710Z,88.66
2018-11-07T07:21:08.239Z,87.53
2018-11-07T07:22:13.347Z,87.50
2018-11-07T07:23:18.113Z,86.70
2018-11-07T07:24:23.444Z,85.99
2018-11-07T07:25:27.974Z,85.53
2018-11-07T07:26:34.475Z,84.64
2018-11-07T07:27:46.390Z,83.55
2018-11-07T07:28:51.452Z,82.71
2018-11-07T07:29:55.963Z,81.92
2018-11-07T07:31:02.216Z,81.33
2018-11-07T07:32:08.322Z,80.57
2018-11-07T07:33:14.417Z,79.73
2018-11-07T07:34:20.249Z,79.54
2018-11-07T07:35:25.270Z,77.53
2018-11-07T07:36:29.813Z,77.12
2018-11-07T07:37:36.211Z,77.06
2018-11-07T07:38:42.141Z,76.52
2018-11-07T07:39:49.543Z,74.68
2018-11-07T07:40:55.865Z,73.34
2018-11-07T07:42:03.354Z,72.67
2018-11-07T07:43:11.139Z,72.20
2018-11-07T07:44:15.611Z,71.75
2018-11-07T07:45:21.377Z,70.64
2018-11-07T07:46:27.710Z,70.20
2018-11-07T07:47:34.185Z,69.43
2018-11-07T07:48:38.694Z,68.34
2018-11-07T07:49:46.470Z,68.13
2018-11-07T07:50:51.888Z,66.90
2018-11-07T07:52:02.002Z,66.64
2018-11-07T07:53:06.915Z,65.24
2018-11-07T07:54:13.920Z,65.67
2018-11-07T07:55:19.070Z,63.90
2018-11-07T07:56:25.428Z,63.96
2018-11-07T07:57:34.870Z,62.89
2018-11-07T07:58:39.979Z,62.54
2018-11-07T07:59:44.462Z,61.06
2018-11-07T08:00:49.826Z,60.89
2018-11-07T08:01:59.498Z,59.85
2018-11-07T08:03:04.827Z,60.43
2018-11-07T08:04:15.605Z,60.42
2018-11-07T08:05:28.389Z,60.99
2018-11-07T08:06:36.139Z,61.19
2018-11-07T08:07:42.571Z,60.75
2018-11-07T08:08:49.288Z,60.64
2018-11-07T08:09:54.991Z,59.81
2018-11-07T08:11:03.444Z,59.69
2018-11-07T08:12:10.873Z,58.87
2018-11-07T08:13:16.219Z,58.11
2018-11-07T08:14:21.312Z,57.38
2018-11-07T08:15:28.053Z,56.27
2018-11-07T08:16:34.117Z,54.71
2018-11-07T08:17:39.869Z,55.28
2018-11-07T08:18:45.854Z,54.92
2018-11-07T08:19:50.898Z,54.72
2018-11-07T08:20:57.171Z,54.42
2018-11-07T08:22:02.633Z,53.98
2018-11-07T08:23:09.296Z,54.36
2018-11-07T08:24:16.731Z,54.24
2018-11-07T08:25:24.704Z,56.15
2018-11-07T08:26:30.907Z,56.31
2018-11-07T08:27:35.637Z,57.19
2018-11-07T08:28:41.751Z,55.00
2018-11-07T08:29:46.277Z,55.66
2018-11-07T08:30:52.635Z,54.07
2018-11-07T08:32:02.015Z,53.75
2018-11-07T08:33:09.343Z,52.72
2018-11-07T08:34:18.928Z,51.92
2018-11-07T08:35:23.943Z,51.65
2018-11-07T08:36:29.077Z,51.52
2018-11-07T08:37:35.320Z,50.59
2018-11-07T08:38:40.106Z,49.15
2018-11-07T08:39:45.200Z,49.54
2018-11-07T08:40:49.828Z,48.84
2018-11-07T08:41:55.101Z,50.59
2018-11-07T08:43:03.530Z,51.56
2018-11-07T08:44:09.821Z,51.30
2018-11-07T08:45:14.856Z,50.20
2018-11-07T08:46:19.742Z,50.31
2018-11-07T08:47:24.294Z,51.83
2018-11-07T08:48:32.741Z,53.01
2018-11-07T08:49:40.352Z,53.72
2018-11-07T08:57:53.072Z,53.93
2018-11-07T08:59:00.671Z,54.74
2018-11-07T09:00:06.927Z,55.35
2018-11-07T09:01:12.262Z,55.98
2018-11-07T09:02:18.757Z,57.06
2018-11-07T09:03:25.540Z,56.70
2018-11-07T09:04:30.721Z,54.97
2018-11-07T09:05:37.395Z,55.19
2018-11-07T09:06:42.798Z,55.47
2018-11-07T09:07:50.394Z,56.62
2018-11-07T09:09:00.644Z,57.21
2018-11-07T09:10:05.677Z,58.38
2018-11-07T09:11:11.772Z,59.18
2018-11-07T09:12:18.211Z,59.39
2018-11-07T09:13:23.808Z,58.84
2018-11-07T09:14:29.471Z,58.37
2018-11-07T09:15:34.909Z,57.07
2018-11-07T09:16:40.773Z,56.27
2018-11-07T09:17:46.960Z,56.46
2018-11-07T09:18:53.387Z,56.73
2018-11-07T09:19:59.025Z,57.29
2018-11-07T09:21:04.412Z,57.29
2018-11-07T09:22:11.688Z,58.15
2018-11-07T09:23:18.481Z,57.69
2018-11-07T09:24:25.446Z,57.37
2018-11-07T09:25:32.770Z,55.55
2018-11-07T09:26:39.217Z,55.45
2018-11-07T09:27:46.447Z,54.71
2018-11-07T09:28:54.863Z,54.32
2018-11-07T09:30:12.537Z,54.24
2018-11-07T09:31:18.933Z,54.73
2018-11-07T09:32:24.836Z,54.90
2018-11-07T09:33:30.256Z,55.50
2018-11-07T09:34:38.261Z,54.90
2018-11-07T09:35:44.576Z,51.68
2018-11-07T09:36:52.535Z,51.68
2018-11-07T09:38:00.920Z,52.19
2018-11-07T09:39:07.261Z,53.48
2018-11-07T09:40:15.576Z,53.84
2018-11-07T09:41:21.529Z,53.15
2018-11-07T09:42:27.815Z,52.33
2018-11-07T09:43:40.654Z,51.99
2018-11-07T09:44:47.791Z,51.04
2018-11-07T09:45:53.530Z,49.84
2018-11-07T09:47:01.004Z,51.39
2018-11-07T09:48:07.998Z,51.83
2018-11-07T09:49:19.149Z,51.79
2018-11-07T09:50:24.578Z,52.43
2018-11-07T09:51:32.575Z,52.28
2018-11-07T09:52:47.726Z,51.80
2018-11-07T09:53:56.223Z,51.66
2018-11-07T09:55:03.252Z,51.02
2018-11-07T09:56:13.241Z,52.25
2018-11-07T09:57:19.808Z,53.36
2018-11-07T09:58:24.939Z,53.26
2018-11-07T09:59:31.774Z,54.03
2018-11-07T10:00:39.526Z,54.27
2018-11-07T10:01:46.725Z,54.17
2018-11-07T10:02:54.593Z,55.10
2018-11-07T10:04:00.113Z,55.58
2018-11-07T10:05:05.299Z,56.04
2018-11-07T10:06:10.888Z,55.62
2018-11-07T10:07:17.719Z,55.30
2018-11-07T10:08:23.158Z,53.97
2018-11-07T10:09:29.978Z,53.41
2018-11-07T10:16:06.385Z,52.58
2018-11-07T10:17:11.246Z,56.06
2018-11-07T10:18:17.002Z,56.51
2018-11-07T10:19:28.387Z,56.49
2018-11-07T10:20:37.166Z,56.59
2018-11-07T10:21:43.476Z,56.95
2018-11-07T10:22:51.516Z,57.27
2018-11-07T10:23:59.321Z,57.14
2018-11-07T10:25:04.360Z,56.24
2018-11-07T10:26:08.906Z,54.82
2018-11-07T10:27:14.856Z,53.72
2018-11-07T10:28:20.663Z,52.56
2018-11-07T10:29:29.874Z,51.79
2018-11-07T10:30:34.745Z,51.17
2018-11-07T10:31:41.525Z,50.02
2018-11-07T10:32:49.242Z,50.02
2018-11-07T10:33:55.034Z,48.89
2018-11-07T10:35:00.388Z,48.65
2018-11-07T10:36:06.184Z,48.21
2018-11-07T10:37:13.002Z,48.76
2018-11-07T10:38:18.395Z,48.70
2018-11-07T10:39:23.595Z,48.45
2018-11-07T10:40:29.990Z,49.19
2018-11-07T10:41:36.466Z,49.01
2018-11-07T10:42:41.407Z,49.10
2018-11-07T10:43:47.742Z,50.14
2018-11-07T10:44:53.525Z,49.93
2018-11-07T10:45:58.964Z,50.39
2018-11-07T10:47:04.213Z,49.25
2018-11-07T10:48:08.768Z,49.02
2018-11-07T10:49:13.658Z,47.81
2018-11-07T10:50:19.375Z,47.17
2018-11-07T10:51:24.283Z,46.23
2018-11-07T10:52:30.310Z,46.71
2018-11-07T10:53:36.945Z,47.03
2018-11-07T10:54:41.477Z,46.53
2018-11-07T10:55:46.152Z,47.44
2018-11-07T10:56:52.846Z,47.21
2018-11-07T10:57:59.680Z,46.25
2018-11-07T10:59:05.246Z,46.57
2018-11-07T11:00:16.475Z,46.09
2018-11-07T11:01:26.782Z,45.65
2018-11-07T11:02:39.359Z,44.48
2018-11-07T11:03:46.712Z,44.87
2018-11-07T11:04:52.365Z,44.66
2018-11-07T11:06:06.266Z,45.35
2018-11-07T11:07:12.569Z,45.16
2018-11-07T11:08:17.080Z,45.12
2018-11-07T11:09:21.659Z,44.83
2018-11-07T11:10:26.246Z,45.10
2018-11-07T11:11:32.395Z,44.91
2018-11-07T11:12:36.960Z,43.95
2018-11-07T11:13:42.231Z,44.11
2018-11-07T11:14:47.615Z,43.49
2018-11-07T11:15:55.511Z,42.82
2018-11-07T11:17:00.906Z,43.02
2018-11-07T11:18:07.114Z,42.93
2018-11-07T11:19:12.220Z,43.55
2018-11-07T11:20:17.169Z,43.76
2018-11-07T11:21:22.971Z,42.90
2018-11-07T11:22:29.323Z,43.91
2018-11-07T11:23:37.143Z,43.37
2018-11-07T11:24:41.841Z,43.28
2018-11-07T11:25:53.464Z,41.93
2018-11-07T11:27:03.449Z,40.37
2018-11-07T11:28:11.210Z,40.17
2018-11-07T11:29:19.542Z,38.14
2018-11-07T11:30:25.531Z,38.14
2018-11-07T11:43:49.263Z,43.06
2018-11-07T11:44:55.458Z,44.12
2018-11-07T11:46:01.985Z,44.71
2018-11-07T11:47:07.522Z,45.55
2018-11-07T11:48:13.809Z,45.14
2018-11-07T11:49:20.805Z,45.57
2018-11-07T11:50:26.336Z,45.66
2018-11-07T11:51:33.336Z,45.66
2018-11-07T11:58:41.051Z,46.53
2018-11-07T11:59:47.223Z,47.02
2018-11-07T12:00:54.645Z,46.96
2018-11-07T12:02:04.888Z,47.46
2018-11-07T12:03:11.783Z,46.92
2018-11-07T12:04:17.731Z,46.68
2018-11-07T12:05:28.841Z,47.47
2018-11-07T12:06:38.311Z,47.33
2018-11-07T12:07:47.354Z,47.06
2018-11-07T12:09:08.309Z,47.11
2018-11-07T12:10:20.173Z,47.04
2018-11-07T12:11:42.610Z,47.04
2018-11-07T12:12:50.117Z,47.76
2018-11-07T12:13:57.120Z,45.12
2018-11-07T12:15:02.797Z,44.83
2018-11-07T12:16:11.803Z,44.23
2018-11-07T12:18:41.375Z,41.18
2018-11-07T12:19:48.114Z,38.93
2018-11-07T12:20:56.853Z,40.12
2018-11-07T12:22:02.933Z,39.57
2018-11-07T12:23:07.601Z,39.53
2018-11-07T12:24:15.558Z,40.42
2018-11-07T12:25:21.407Z,39.17
2018-11-07T12:26:27.003Z,38.91
2018-11-07T12:27:32.187Z,37.66
2018-11-07T12:28:37.522Z,37.72
2018-11-07T12:29:43.386Z,37.69
2018-11-07T12:30:49.231Z,38.58
2018-11-07T12:31:54.790Z,38.18
2018-11-07T12:33:00.961Z,39.00
2018-11-07T12:34:06.035Z,39.56
2018-11-07T12:35:13.946Z,38.96
2018-11-07T12:36:19.088Z,38.67
2018-11-07T12:37:30.544Z,39.73
2018-11-07T12:38:36.215Z,39.69
2018-11-07T12:39:41.541Z,39.83
2018-11-07T12:40:48.050Z,39.51
2018-11-07T12:41:56.487Z,38.81
2018-11-07T12:43:04.627Z,39.40
2018-11-07T12:44:12.696Z,37.84
2018-11-07T12:45:21.076Z,37.44
2018-11-07T12:46:27.391Z,48.82
2018-11-07T12:47:34.534Z,38.13
2018-11-07T12:48:39.891Z,37.94
2018-11-07T12:49:48.432Z,37.69
2018-11-07T12:50:55.667Z,38.05
2018-11-07T12:52:01.387Z,38.24
2018-11-07T12:53:05.993Z,38.79
2018-11-07T12:54:11.492Z,38.89
2018-11-07T12:55:16.349Z,37.76
2018-11-07T12:56:22.358Z,38.08
2018-11-07T12:57:28.243Z,38.88
2018-11-07T12:58:33.958Z,38.14
2018-11-07T12:59:41.813Z,39.19
2018-11-07T13:00:47.440Z,39.47
2018-11-07T13:01:52.377Z,38.66
2018-11-07T13:02:57.490Z,39.20
2018-11-07T13:04:03.822Z,39.74
2018-11-07T13:05:09.829Z,39.36
2018-11-07T13:06:15.228Z,39.00
2018-11-07T13:07:20.944Z,39.52
2018-11-07T13:08:26.962Z,38.32
2018-11-07T13:09:32.494Z,38.70
2018-11-07T13:10:37.442Z,39.34
2018-11-07T13:11:42.048Z,39.82
2018-11-07T13:12:48.760Z,39.35
2018-11-07T13:13:54.269Z,39.01
2018-11-07T13:14:59.314Z,39.02
2018-11-07T13:16:04.846Z,38.96
2018-11-07T13:17:11.713Z,39.42
2018-11-07T13:18:19.574Z,38.73
2018-11-07T13:19:24.785Z,39.19
2018-11-07T13:20:30.790Z,39.01
2018-11-07T13:21:35.680Z,39.98
2018-11-07T13:22:40.256Z,39.72
2018-11-07T13:23:45.277Z,39.33
2018-11-07T13:24:51.462Z,39.98
2018-11-07T13:25:56.833Z,41.07
2018-11-07T13:27:01.569Z,41.60
2018-11-07T13:28:08.502Z,43.47
2018-11-07T13:29:15.065Z,45.46
2018-11-07T13:30:22.872Z,46.28
2018-11-07T13:31:28.211Z,47.26
2018-11-07T13:32:33.131Z,48.13
2018-11-07T13:33:39.299Z,48.89
2018-11-07T13:34:45.756Z,50.09
2018-11-07T13:35:50.636Z,51.06
2018-11-07T13:36:59.647Z,51.21
2018-11-07T13:38:07.457Z,51.74
2018-11-07T13:39:14.549Z,52.74
2018-11-07T13:40:21.663Z,52.55
2018-11-07T13:41:28.738Z,53.47
2018-11-07T13:42:34.231Z,54.11
2018-11-07T13:43:44.432Z,55.36
2018-11-07T13:44:48.931Z,55.58
2018-11-07T13:45:53.621Z,56.45
2018-11-07T13:46:59.694Z,56.54
2018-11-07T13:48:06.427Z,57.24
2018-11-07T13:49:12.113Z,56.83
2018-11-07T13:50:17.081Z,57.19
2018-11-07T13:51:22.815Z,57.30
2018-11-07T13:52:32.243Z,57.38
2018-11-07T13:53:39.110Z,57.71
2018-11-07T13:54:44.722Z,57.08
2018-11-07T13:55:52.871Z,58.20
2018-11-07T13:56:58.448Z,57.82
2018-11-07T13:58:03.601Z,57.96
2018-11-07T13:59:09.385Z,57.84
2018-11-07T14:00:19.618Z,58.00
2018-11-07T14:01:24.937Z,58.37
2018-11-07T14:02:31.732Z,58.28
2018-11-07T14:03:47.932Z,46.38
2018-11-07T14:06:07.488Z,59.76
2018-11-07T14:07:15.230Z,59.57
2018-11-07T14:08:20.642Z,58.71
2018-11-07T14:09:26.291Z,58.63
2018-11-07T14:10:31.457Z,58.69
2018-11-07T14:11:36.374Z,58.36
2018-11-07T14:12:44.196Z,58.13
2018-11-07T14:13:50.033Z,58.37
2018-11-07T14:14:57.289Z,58.41
2018-11-07T14:16:01.865Z,57.91
2018-11-07T14:17:06.917Z,57.39
2018-11-07T14:18:11.759Z,57.51
2018-11-07T14:19:18.083Z,57.14
2018-11-07T14:20:23.103Z,57.81
2018-11-07T14:21:28.356Z,58.10
2018-11-07T14:22:33.855Z,58.34
2018-11-07T14:23:38.792Z,58.10
2018-11-07T14:24:45.641Z,58.60
2018-11-07T14:25:52.161Z,58.68
2018-11-07T14:26:58.070Z,59.05
2018-11-07T14:28:04.827Z,59.30
2018-11-07T14:29:09.753Z,59.46
2018-11-07T14:30:15.996Z,59.37
2018-11-07T14:31:28.850Z,59.94
2018-11-07T14:32:34.240Z,60.00
2018-11-07T14:33:41.042Z,60.23
2018-11-07T14:34:48.382Z,60.37
2018-11-07T14:35:58.485Z,60.30
2018-11-07T14:37:08.390Z,60.54
2018-11-07T14:38:14.753Z,60.89
2018-11-07T14:39:21.026Z,60.68
2018-11-07T14:40:25.660Z,61.06
2018-11-07T14:41:33.604Z,61.27
2018-11-07T14:42:40.348Z,61.33
2018-11-07T14:43:46.566Z,61.51
2018-11-07T14:44:53.751Z,61.74
2018-11-07T14:45:59.136Z,61.30
2018-11-07T14:47:07.431Z,61.78
2018-11-07T14:48:13.987Z,61.99
2018-11-07T14:49:19.791Z,61.57
2018-11-07T14:50:25.684Z,61.77
2018-11-07T14:51:32.310Z,61.74
2018-11-07T14:52:40.067Z,61.98
2018-11-07T14:53:46.433Z,61.68
2018-11-07T14:54:54.578Z,61.52
2018-11-07T14:56:02.665Z,61.20
2018-11-07T14:57:09.500Z,61.40
2018-11-07T14:58:15.366Z,61.76
2018-11-07T14:59:20.500Z,61.51
2018-11-07T15:00:29.963Z,61.78
2018-11-07T15:01:41.712Z,61.62
2018-11-07T15:02:47.121Z,61.17
2018-11-07T15:03:53.451Z,61.17
2018-11-07T15:05:03.333Z,61.44